Orchard, Iowa
Current Conditions -  °F | °C
As of 11:15 AM on Friday 28 Nov 2014 (Local Time) from KCCY Reporting Station
Few Clouds Few Clouds  
Wind Chill:   Ceiling: Unl
Heat Index: 21°   Visibility: 10mi
Dew Point: 16°   Wind: 12mph
Humidity: 80%   Direction: 140°SE
Pressure: 29.93"   Gusts: NA
Location:  43.23°N, 92.77°W
Report Text: KCCY 281715Z AUTO 14010KT 10SM FEW120 M06/M09 A2993 RMK AO2
Loading
Personal Weather Stations






























Interactive Weather Map New forecast layout! Learn more

10-Day Weather Forecast

Advertisements
Track Severe Weather on mobile